sensor_id;sensor_type;location;lat;lon;timestamp;pressure;altitude;pressure_sealevel;temperature
71564;BMP180;59391;52.504;13.438;2023-03-08T00:01:48;99359.00;;;5.90
71564;BMP180;59391;52.504;13.438;2023-03-08T00:04:13;99363.00;;;5.90
71564;BMP180;59391;52.504;13.438;2023-03-08T00:06:39;99366.00;;;5.90
71564;BMP180;59391;52.504;13.438;2023-03-08T00:09:04;99368.00;;;5.80
71564;BMP180;59391;52.504;13.438;2023-03-08T00:11:30;99364.00;;;5.80
71564;BMP180;59391;52.504;13.438;2023-03-08T00:13:56;99372.00;;;5.80
71564;BMP180;59391;52.504;13.438;2023-03-08T00:16:22;99372.00;;;5.80
71564;BMP180;59391;52.504;13.438;2023-03-08T00:18:48;99372.00;;;5.80
71564;BMP180;59391;52.504;13.438;2023-03-08T00:21:16;99381.00;;;5.70
71564;BMP180;59391;52.504;13.438;2023-03-08T00:23:43;99385.00;;;5.70
71564;BMP180;59391;52.504;13.438;2023-03-08T00:26:11;99383.00;;;5.60
71564;BMP180;59391;52.504;13.438;2023-03-08T00:28:37;99385.00;;;5.60
71564;BMP180;59391;52.504;13.438;2023-03-08T00:31:09;99383.00;;;5.60
71564;BMP180;59391;52.504;13.438;2023-03-08T00:33:36;99392.00;;;5.60
71564;BMP180;59391;52.504;13.438;2023-03-08T00:36:28;99391.00;;;5.60
71564;BMP180;59391;52.504;13.438;2023-03-08T00:38:56;99393.00;;;5.50
71564;BMP180;59391;52.504;13.438;2023-03-08T00:41:22;99391.00;;;5.50
71564;BMP180;59391;52.504;13.438;2023-03-08T00:43:48;99395.00;;;5.50
71564;BMP180;59391;52.504;13.438;2023-03-08T00:46:15;99401.00;;;5.50
71564;BMP180;59391;52.504;13.438;2023-03-08T00:48:41;99402.00;;;5.50
71564;BMP180;59391;52.504;13.438;2023-03-08T00:51:08;99394.00;;;5.50
71564;BMP180;59391;52.504;13.438;2023-03-08T00:53:36;99402.00;;;5.40
71564;BMP180;59391;52.504;13.438;2023-03-08T00:56:01;99406.00;;;5.40
71564;BMP180;59391;52.504;13.438;2023-03-08T00:58:29;99403.00;;;5.40
71564;BMP180;59391;52.504;13.438;2023-03-08T01:00:55;99390.00;;;5.40
71564;BMP180;59391;52.504;13.438;2023-03-08T01:03:20;99409.00;;;5.40
71564;BMP180;59391;52.504;13.438;2023-03-08T01:05:50;99407.00;;;5.40
71564;BMP180;59391;52.504;13.438;2023-03-08T01:08:17;99403.00;;;5.40
71564;BMP180;59391;52.504;13.438;2023-03-08T01:10:56;99420.00;;;5.40
71564;BMP180;59391;52.504;13.438;2023-03-08T01:13:34;99415.00;;;5.40
71564;BMP180;59391;52.504;13.438;2023-03-08T01:16:00;99414.00;;;5.40
71564;BMP180;59391;52.504;13.438;2023-03-08T01:18:27;99418.00;;;5.40
71564;BMP180;59391;52.504;13.438;2023-03-08T01:21:02;99431.00;;;5.30
71564;BMP180;59391;52.504;13.438;2023-03-08T01:23:39;99425.00;;;5.30
71564;BMP180;59391;52.504;13.438;2023-03-08T01:26:10;99421.00;;;5.30
71564;BMP180;59391;52.504;13.438;2023-03-08T01:28:36;99420.00;;;5.30
71564;BMP180;59391;52.504;13.438;2023-03-08T01:31:10;99430.00;;;5.30
71564;BMP180;59391;52.504;13.438;2023-03-08T01:33:36;99424.00;;;5.30
71564;BMP180;59391;52.504;13.438;2023-03-08T01:36:08;99433.00;;;5.30
71564;BMP180;59391;52.504;13.438;2023-03-08T01:38:34;99418.00;;;5.20
71564;BMP180;59391;52.504;13.438;2023-03-08T01:41:02;99426.00;;;5.30
71564;BMP180;59391;52.504;13.438;2023-03-08T01:43:32;99421.00;;;5.20
71564;BMP180;59391;52.504;13.438;2023-03-08T01:46:21;99429.00;;;5.20
71564;BMP180;59391;52.504;13.438;2023-03-08T01:48:54;99431.00;;;5.20
71564;BMP180;59391;52.504;13.438;2023-03-08T01:51:46;99435.00;;;5.10
71564;BMP180;59391;52.504;13.438;2023-03-08T01:54:19;99444.00;;;5.20
71564;BMP180;59391;52.504;13.438;2023-03-08T01:56:48;99436.00;;;5.10
71564;BMP180;59391;52.504;13.438;2023-03-08T01:59:14;99428.00;;;5.10
71564;BMP180;59391;52.504;13.438;2023-03-08T02:01:40;99427.00;;;5.00
71564;BMP180;59391;52.504;13.438;2023-03-08T02:04:08;99439.00;;;5.00
71564;BMP180;59391;52.504;13.438;2023-03-08T02:06:34;99432.00;;;5.00
71564;BMP180;59391;52.504;13.438;2023-03-08T02:09:00;99435.00;;;5.00
71564;BMP180;59391;52.504;13.438;2023-03-08T02:11:33;99433.00;;;5.00
71564;BMP180;59391;52.504;13.438;2023-03-08T02:14:00;99439.00;;;4.90
71564;BMP180;59391;52.504;13.438;2023-03-08T02:16:26;99443.00;;;4.90
71564;BMP180;59391;52.504;13.438;2023-03-08T02:18:59;99445.00;;;4.90
71564;BMP180;59391;52.504;13.438;2023-03-08T02:21:27;99439.00;;;4.90
71564;BMP180;59391;52.504;13.438;2023-03-08T02:23:54;99444.00;;;4.90
71564;BMP180;59391;52.504;13.438;2023-03-08T02:26:20;99435.00;;;4.90
71564;BMP180;59391;52.504;13.438;2023-03-08T02:28:47;99443.00;;;4.90
71564;BMP180;59391;52.504;13.438;2023-03-08T02:31:14;99432.00;;;4.90
71564;BMP180;59391;52.504;13.438;2023-03-08T02:33:40;99439.00;;;4.90
71564;BMP180;59391;52.504;13.438;2023-03-08T02:36:07;99438.00;;;4.90
71564;BMP180;59391;52.504;13.438;2023-03-08T02:38:34;99441.00;;;4.90
71564;BMP180;59391;52.504;13.438;2023-03-08T02:40:59;99455.00;;;4.90
71564;BMP180;59391;52.504;13.438;2023-03-08T02:43:25;99449.00;;;4.90
71564;BMP180;59391;52.504;13.438;2023-03-08T02:45:51;99456.00;;;4.90
71564;BMP180;59391;52.504;13.438;2023-03-08T02:48:17;99454.00;;;4.80
71564;BMP180;59391;52.504;13.438;2023-03-08T02:50:43;99455.00;;;4.90
71564;BMP180;59391;52.504;13.438;2023-03-08T02:53:09;99452.00;;;4.80
71564;BMP180;59391;52.504;13.438;2023-03-08T02:55:35;99463.00;;;4.80
71564;BMP180;59391;52.504;13.438;2023-03-08T02:58:06;99462.00;;;4.80
71564;BMP180;59391;52.504;13.438;2023-03-08T03:00:32;99453.00;;;4.90
71564;BMP180;59391;52.504;13.438;2023-03-08T03:02:58;99459.00;;;4.80
71564;BMP180;59391;52.504;13.438;2023-03-08T03:05:24;99445.00;;;4.80
71564;BMP180;59391;52.504;13.438;2023-03-08T03:07:50;99445.00;;;4.80
71564;BMP180;59391;52.504;13.438;2023-03-08T03:10:16;99458.00;;;4.80
71564;BMP180;59391;52.504;13.438;2023-03-08T03:12:42;99443.00;;;4.80
71564;BMP180;59391;52.504;13.438;2023-03-08T03:15:10;99456.00;;;4.80
71564;BMP180;59391;52.504;13.438;2023-03-08T03:17:36;99461.00;;;4.80
71564;BMP180;59391;52.504;13.438;2023-03-08T03:20:04;99466.00;;;4.80
71564;BMP180;59391;52.504;13.438;2023-03-08T03:22:31;99445.00;;;4.80
71564;BMP180;59391;52.504;13.438;2023-03-08T03:24:57;99459.00;;;4.80
71564;BMP180;59391;52.504;13.438;2023-03-08T03:27:22;99440.00;;;4.80
71564;BMP180;59391;52.504;13.438;2023-03-08T03:29:48;99458.00;;;4.90
71564;BMP180;59391;52.504;13.438;2023-03-08T03:32:14;99464.00;;;4.90
71564;BMP180;59391;52.504;13.438;2023-03-08T03:34:40;99449.00;;;4.80
71564;BMP180;59391;52.504;13.438;2023-03-08T03:37:05;99469.00;;;4.90
71564;BMP180;59391;52.504;13.438;2023-03-08T03:39:38;99458.00;;;4.90
71564;BMP180;59391;52.504;13.438;2023-03-08T03:42:06;99468.00;;;4.80
71564;BMP180;59391;52.504;13.438;2023-03-08T03:44:32;99470.00;;;4.90
71564;BMP180;59391;52.504;13.438;2023-03-08T03:46:58;99492.00;;;4.90
71564;BMP180;59391;52.504;13.438;2023-03-08T03:49:24;99485.00;;;4.90
71564;BMP180;59391;52.504;13.438;2023-03-08T03:51:49;99482.00;;;4.90
71564;BMP180;59391;52.504;13.438;2023-03-08T03:54:15;99486.00;;;4.90
71564;BMP180;59391;52.504;13.438;2023-03-08T03:56:41;99491.00;;;4.90
71564;BMP180;59391;52.504;13.438;2023-03-08T03:59:06;99503.00;;;4.90
71564;BMP180;59391;52.504;13.438;2023-03-08T04:01:32;99491.00;;;5.00
71564;BMP180;59391;52.504;13.438;2023-03-08T04:03:59;99506.00;;;5.00
71564;BMP180;59391;52.504;13.438;2023-03-08T04:06:28;99508.00;;;5.00
71564;BMP180;59391;52.504;13.438;2023-03-08T04:09:03;99515.00;;;5.00
71564;BMP180;59391;52.504;13.438;2023-03-08T04:11:34;99513.00;;;4.90
71564;BMP180;59391;52.504;13.438;2023-03-08T04:14:01;99507.00;;;4.90
71564;BMP180;59391;52.504;13.438;2023-03-08T04:16:29;99506.00;;;4.90
71564;BMP180;59391;52.504;13.438;2023-03-08T04:19:03;99514.00;;;5.00
71564;BMP180;59391;52.504;13.438;2023-03-08T04:21:29;99501.00;;;5.00
71564;BMP180;59391;52.504;13.438;2023-03-08T04:23:56;99498.00;;;5.00
71564;BMP180;59391;52.504;13.438;2023-03-08T04:26:23;99499.00;;;4.90
71564;BMP180;59391;52.504;13.438;2023-03-08T04:28:49;99492.00;;;4.90
71564;BMP180;59391;52.504;13.438;2023-03-08T04:31:22;99506.00;;;4.80
71564;BMP180;59391;52.504;13.438;2023-03-08T04:33:49;99518.00;;;4.80
71564;BMP180;59391;52.504;13.438;2023-03-08T04:36:16;99517.00;;;4.90
71564;BMP180;59391;52.504;13.438;2023-03-08T04:38:43;99513.00;;;4.90
71564;BMP180;59391;52.504;13.438;2023-03-08T04:41:10;99502.00;;;4.90
71564;BMP180;59391;52.504;13.438;2023-03-08T04:43:48;99504.00;;;4.90
71564;BMP180;59391;52.504;13.438;2023-03-08T04:46:16;99503.00;;;4.90
71564;BMP180;59391;52.504;13.438;2023-03-08T04:48:42;99494.00;;;4.90
71564;BMP180;59391;52.504;13.438;2023-03-08T04:51:10;99507.00;;;4.90
71564;BMP180;59391;52.504;13.438;2023-03-08T04:53:36;99493.00;;;4.90
71564;BMP180;59391;52.504;13.438;2023-03-08T04:56:05;99498.00;;;4.90
71564;BMP180;59391;52.504;13.438;2023-03-08T04:58:31;99495.00;;;4.80
71564;BMP180;59391;52.504;13.438;2023-03-08T05:00:57;99500.00;;;4.80
71564;BMP180;59391;52.504;13.438;2023-03-08T05:03:23;99506.00;;;4.80
71564;BMP180;59391;52.504;13.438;2023-03-08T05:05:54;99507.00;;;4.80
71564;BMP180;59391;52.504;13.438;2023-03-08T05:08:21;99500.00;;;4.80
71564;BMP180;59391;52.504;13.438;2023-03-08T05:10:49;99498.00;;;4.70
71564;BMP180;59391;52.504;13.438;2023-03-08T05:13:17;99494.00;;;4.70
71564;BMP180;59391;52.504;13.438;2023-03-08T05:15:43;99502.00;;;4.70
71564;BMP180;59391;52.504;13.438;2023-03-08T05:18:09;99500.00;;;4.70
71564;BMP180;59391;52.504;13.438;2023-03-08T05:20:34;99503.00;;;4.70
71564;BMP180;59391;52.504;13.438;2023-03-08T05:23:00;99499.00;;;4.70
71564;BMP180;59391;52.504;13.438;2023-03-08T05:25:26;99511.00;;;4.60
71564;BMP180;59391;52.504;13.438;2023-03-08T05:27:52;99512.00;;;4.60
71564;BMP180;59391;52.504;13.438;2023-03-08T05:30:18;99511.00;;;4.60
71564;BMP180;59391;52.504;13.438;2023-03-08T05:32:43;99519.00;;;4.60
71564;BMP180;59391;52.504;13.438;2023-03-08T05:35:09;99514.00;;;4.60
71564;BMP180;59391;52.504;13.438;2023-03-08T05:37:35;99519.00;;;4.60
71564;BMP180;59391;52.504;13.438;2023-03-08T05:40:01;99514.00;;;4.60
71564;BMP180;59391;52.504;13.438;2023-03-08T05:42:30;99524.00;;;4.60
71564;BMP180;59391;52.504;13.438;2023-03-08T05:44:56;99520.00;;;4.50
71564;BMP180;59391;52.504;13.438;2023-03-08T05:47:22;99526.00;;;4.50
71564;BMP180;59391;52.504;13.438;2023-03-08T05:49:47;99528.00;;;4.50
71564;BMP180;59391;52.504;13.438;2023-03-08T05:52:13;99535.00;;;4.40
71564;BMP180;59391;52.504;13.438;2023-03-08T05:54:39;99537.00;;;4.50
71564;BMP180;59391;52.504;13.438;2023-03-08T05:57:04;99532.00;;;4.40
71564;BMP180;59391;52.504;13.438;2023-03-08T05:59:30;99539.00;;;4.40
71564;BMP180;59391;52.504;13.438;2023-03-08T06:01:56;99543.00;;;4.40
71564;BMP180;59391;52.504;13.438;2023-03-08T06:04:22;99539.00;;;4.40
71564;BMP180;59391;52.504;13.438;2023-03-08T06:06:47;99537.00;;;4.40
71564;BMP180;59391;52.504;13.438;2023-03-08T06:09:13;99532.00;;;4.50
71564;BMP180;59391;52.504;13.438;2023-03-08T06:11:38;99539.00;;;4.50
71564;BMP180;59391;52.504;13.438;2023-03-08T06:14:04;99552.00;;;4.50
71564;BMP180;59391;52.504;13.438;2023-03-08T06:16:30;99542.00;;;4.50
71564;BMP180;59391;52.504;13.438;2023-03-08T06:18:55;99539.00;;;4.50
71564;BMP180;59391;52.504;13.438;2023-03-08T06:21:21;99543.00;;;4.40
71564;BMP180;59391;52.504;13.438;2023-03-08T06:23:48;99554.00;;;4.40
71564;BMP180;59391;52.504;13.438;2023-03-08T06:26:15;99554.00;;;4.40
71564;BMP180;59391;52.504;13.438;2023-03-08T06:28:41;99543.00;;;4.40
71564;BMP180;59391;52.504;13.438;2023-03-08T06:31:11;99561.00;;;4.50
71564;BMP180;59391;52.504;13.438;2023-03-08T06:33:36;99562.00;;;4.50
71564;BMP180;59391;52.504;13.438;2023-03-08T06:36:11;99563.00;;;4.50
71564;BMP180;59391;52.504;13.438;2023-03-08T06:38:39;99549.00;;;4.40
71564;BMP180;59391;52.504;13.438;2023-03-08T06:41:07;99563.00;;;4.40
71564;BMP180;59391;52.504;13.438;2023-03-08T06:43:33;99548.00;;;4.50
71564;BMP180;59391;52.504;13.438;2023-03-08T06:46:07;99553.00;;;4.50
71564;BMP180;59391;52.504;13.438;2023-03-08T06:48:35;99549.00;;;4.50
71564;BMP180;59391;52.504;13.438;2023-03-08T06:51:02;99552.00;;;4.50
71564;BMP180;59391;52.504;13.438;2023-03-08T06:53:28;99555.00;;;4.50
71564;BMP180;59391;52.504;13.438;2023-03-08T06:55:54;99551.00;;;4.50
71564;BMP180;59391;52.504;13.438;2023-03-08T06:58:20;99548.00;;;4.50
71564;BMP180;59391;52.504;13.438;2023-03-08T07:00:45;99550.00;;;4.60
71564;BMP180;59391;52.504;13.438;2023-03-08T07:03:12;99544.00;;;4.60
71564;BMP180;59391;52.504;13.438;2023-03-08T07:05:38;99536.00;;;4.70
71564;BMP180;59391;52.504;13.438;2023-03-08T07:08:04;99533.00;;;4.70
71564;BMP180;59391;52.504;13.438;2023-03-08T07:10:30;99539.00;;;4.70
71564;BMP180;59391;52.504;13.438;2023-03-08T07:12:56;99532.00;;;4.80
71564;BMP180;59391;52.504;13.438;2023-03-08T07:15:23;99523.00;;;4.80
71564;BMP180;59391;52.504;13.438;2023-03-08T07:17:51;99530.00;;;4.90
71564;BMP180;59391;52.504;13.438;2023-03-08T07:20:20;99534.00;;;5.00
71564;BMP180;59391;52.504;13.438;2023-03-08T07:22:46;99541.00;;;5.00
71564;BMP180;59391;52.504;13.438;2023-03-08T07:25:14;99543.00;;;5.10
71564;BMP180;59391;52.504;13.438;2023-03-08T07:27:40;99540.00;;;5.20
71564;BMP180;59391;52.504;13.438;2023-03-08T07:30:08;99536.00;;;5.10
71564;BMP180;59391;52.504;13.438;2023-03-08T07:32:35;99535.00;;;5.10
71564;BMP180;59391;52.504;13.438;2023-03-08T07:35:01;99547.00;;;5.20
71564;BMP180;59391;52.504;13.438;2023-03-08T07:37:27;99541.00;;;5.10
71564;BMP180;59391;52.504;13.438;2023-03-08T07:39:52;99549.00;;;5.10
71564;BMP180;59391;52.504;13.438;2023-03-08T07:42:18;99546.00;;;5.10
71564;BMP180;59391;52.504;13.438;2023-03-08T07:44:44;99547.00;;;5.10
71564;BMP180;59391;52.504;13.438;2023-03-08T07:47:10;99547.00;;;5.10
71564;BMP180;59391;52.504;13.438;2023-03-08T07:49:36;99546.00;;;5.20
71564;BMP180;59391;52.504;13.438;2023-03-08T07:52:01;99549.00;;;5.30
71564;BMP180;59391;52.504;13.438;2023-03-08T07:54:27;99551.00;;;5.30
71564;BMP180;59391;52.504;13.438;2023-03-08T07:56:53;99551.00;;;5.40
71564;BMP180;59391;52.504;13.438;2023-03-08T07:59:22;99550.00;;;5.50
71564;BMP180;59391;52.504;13.438;2023-03-08T08:01:48;99556.00;;;5.60
71564;BMP180;59391;52.504;13.438;2023-03-08T08:04:14;99549.00;;;5.70
71564;BMP180;59391;52.504;13.438;2023-03-08T08:06:40;99545.00;;;5.80
71564;BMP180;59391;52.504;13.438;2023-03-08T08:09:07;99551.00;;;5.90
71564;BMP180;59391;52.504;13.438;2023-03-08T08:11:34;99540.00;;;5.90
71564;BMP180;59391;52.504;13.438;2023-03-08T08:14:03;99541.00;;;6.00
71564;BMP180;59391;52.504;13.438;2023-03-08T08:16:30;99550.00;;;6.20
71564;BMP180;59391;52.504;13.438;2023-03-08T08:18:56;99537.00;;;6.60
71564;BMP180;59391;52.504;13.438;2023-03-08T08:21:22;99547.00;;;6.90
71564;BMP180;59391;52.504;13.438;2023-03-08T08:23:48;99537.00;;;7.10
71564;BMP180;59391;52.504;13.438;2023-03-08T08:26:18;99534.00;;;7.40
71564;BMP180;59391;52.504;13.438;2023-03-08T08:28:46;99542.00;;;7.70
71564;BMP180;59391;52.504;13.438;2023-03-08T08:31:16;99539.00;;;8.10
71564;BMP180;59391;52.504;13.438;2023-03-08T08:33:42;99533.00;;;8.40
71564;BMP180;59391;52.504;13.438;2023-03-08T08:36:12;99534.00;;;8.40
71564;BMP180;59391;52.504;13.438;2023-03-08T08:38:38;99536.00;;;8.50
71564;BMP180;59391;52.504;13.438;2023-03-08T08:41:06;99528.00;;;8.50
71564;BMP180;59391;52.504;13.438;2023-03-08T08:43:35;99533.00;;;8.30
71564;BMP180;59391;52.504;13.438;2023-03-08T08:46:02;99522.00;;;8.30
71564;BMP180;59391;52.504;13.438;2023-03-08T08:48:28;99522.00;;;8.20
71564;BMP180;59391;52.504;13.438;2023-03-08T08:50:56;99509.00;;;8.20
71564;BMP180;59391;52.504;13.438;2023-03-08T08:53:22;99512.00;;;8.30
71564;BMP180;59391;52.504;13.438;2023-03-08T08:55:47;99506.00;;;8.30
71564;BMP180;59391;52.504;13.438;2023-03-08T08:58:14;99500.00;;;8.40
71564;BMP180;59391;52.504;13.438;2023-03-08T09:00:39;99508.00;;;8.70
71564;BMP180;59391;52.504;13.438;2023-03-08T09:03:05;99495.00;;;8.90
71564;BMP180;59391;52.504;13.438;2023-03-08T09:05:33;99494.00;;;9.00
71564;BMP180;59391;52.504;13.438;2023-03-08T09:08:02;99496.00;;;9.00
71564;BMP180;59391;52.504;13.438;2023-03-08T09:10:31;99491.00;;;9.20
71564;BMP180;59391;52.504;13.438;2023-03-08T09:12:58;99487.00;;;9.40
71564;BMP180;59391;52.504;13.438;2023-03-08T09:15:25;99474.00;;;9.60
71564;BMP180;59391;52.504;13.438;2023-03-08T09:17:51;99491.00;;;9.90
71564;BMP180;59391;52.504;13.438;2023-03-08T09:20:17;99482.00;;;10.00
71564;BMP180;59391;52.504;13.438;2023-03-08T09:22:43;99484.00;;;9.80
71564;BMP180;59391;52.504;13.438;2023-03-08T09:25:10;99482.00;;;9.80
71564;BMP180;59391;52.504;13.438;2023-03-08T09:27:38;99492.00;;;9.80
71564;BMP180;59391;52.504;13.438;2023-03-08T09:30:08;99486.00;;;9.70
71564;BMP180;59391;52.504;13.438;2023-03-08T09:32:34;99488.00;;;9.60
71564;BMP180;59391;52.504;13.438;2023-03-08T09:35:01;99488.00;;;9.60
71564;BMP180;59391;52.504;13.438;2023-03-08T09:37:26;99483.00;;;9.40
71564;BMP180;59391;52.504;13.438;2023-03-08T09:39:53;99491.00;;;9.30
71564;BMP180;59391;52.504;13.438;2023-03-08T09:42:32;99487.00;;;9.00
71564;BMP180;59391;52.504;13.438;2023-03-08T09:45:19;99474.00;;;8.90
71564;BMP180;59391;52.504;13.438;2023-03-08T09:48:16;99472.00;;;8.90
71564;BMP180;59391;52.504;13.438;2023-03-08T09:50:49;99481.00;;;9.00
71564;BMP180;59391;52.504;13.438;2023-03-08T09:53:42;99471.00;;;9.00
71564;BMP180;59391;52.504;13.438;2023-03-08T09:56:24;99476.00;;;9.00
71564;BMP180;59391;52.504;13.438;2023-03-08T10:04:36;99468.00;;;9.20
71564;BMP180;59391;52.504;13.438;2023-03-08T10:07:30;99459.00;;;9.30
71564;BMP180;59391;52.504;13.438;2023-03-08T10:10:20;99452.00;;;9.40
71564;BMP180;59391;52.504;13.438;2023-03-08T10:15:42;99447.00;;;10.00
71564;BMP180;59391;52.504;13.438;2023-03-08T10:18:33;99445.00;;;10.40
71564;BMP180;59391;52.504;13.438;2023-03-08T10:21:01;99444.00;;;10.60
71564;BMP180;59391;52.504;13.438;2023-03-08T10:23:30;99431.00;;;10.70
71564;BMP180;59391;52.504;13.438;2023-03-08T10:25:59;99439.00;;;10.60
71564;BMP180;59391;52.504;13.438;2023-03-08T10:28:27;99450.00;;;10.50
71564;BMP180;59391;52.504;13.438;2023-03-08T10:30:57;99450.00;;;10.40
71564;BMP180;59391;52.504;13.438;2023-03-08T10:33:29;99451.00;;;10.20
71564;BMP180;59391;52.504;13.438;2023-03-08T10:36:08;99450.00;;;10.00
71564;BMP180;59391;52.504;13.438;2023-03-08T10:38:38;99433.00;;;10.00
71564;BMP180;59391;52.504;13.438;2023-03-08T10:41:15;99441.00;;;10.20
71564;BMP180;59391;52.504;13.438;2023-03-08T10:43:52;99446.00;;;10.30
71564;BMP180;59391;52.504;13.438;2023-03-08T10:46:24;99441.00;;;10.60
71564;BMP180;59391;52.504;13.438;2023-03-08T10:48:50;99433.00;;;10.90
71564;BMP180;59391;52.504;13.438;2023-03-08T10:51:23;99437.00;;;11.20
71564;BMP180;59391;52.504;13.438;2023-03-08T10:54:02;99426.00;;;11.50
71564;BMP180;59391;52.504;13.438;2023-03-08T10:56:49;99422.00;;;11.50
71564;BMP180;59391;52.504;13.438;2023-03-08T10:59:29;99416.00;;;11.30
71564;BMP180;59391;52.504;13.438;2023-03-08T11:02:16;99412.00;;;11.20
71564;BMP180;59391;52.504;13.438;2023-03-08T11:04:55;99411.00;;;11.10
71564;BMP180;59391;52.504;13.438;2023-03-08T11:07:28;99404.00;;;11.10
71564;BMP180;59391;52.504;13.438;2023-03-08T11:10:18;99402.00;;;11.10
71564;BMP180;59391;52.504;13.438;2023-03-08T11:12:44;99397.00;;;10.90
71564;BMP180;59391;52.504;13.438;2023-03-08T11:15:18;99403.00;;;10.60
71564;BMP180;59391;52.504;13.438;2023-03-08T11:18:21;99400.00;;;10.40
71564;BMP180;59391;52.504;13.438;2023-03-08T11:21:00;99404.00;;;10.30
71564;BMP180;59391;52.504;13.438;2023-03-08T11:23:41;99396.00;;;10.30
71564;BMP180;59391;52.504;13.438;2023-03-08T11:26:36;99386.00;;;10.30
71564;BMP180;59391;52.504;13.438;2023-03-08T11:29:25;99379.00;;;10.20
71564;BMP180;59391;52.504;13.438;2023-03-08T11:35:26;99358.00;;;10.00
71564;BMP180;59391;52.504;13.438;2023-03-08T11:38:19;99363.00;;;9.90
71564;BMP180;59391;52.504;13.438;2023-03-08T11:41:33;99364.00;;;9.70
71564;BMP180;59391;52.504;13.438;2023-03-08T11:44:28;99363.00;;;9.60
71564;BMP180;59391;52.504;13.438;2023-03-08T11:53:33;99352.00;;;9.50
71564;BMP180;59391;52.504;13.438;2023-03-08T11:56:37;99342.00;;;9.40
71564;BMP180;59391;52.504;13.438;2023-03-08T12:02:01;99331.00;;;9.30
71564;BMP180;59391;52.504;13.438;2023-03-08T12:04:56;99328.00;;;9.30
71564;BMP180;59391;52.504;13.438;2023-03-08T12:07:33;99336.00;;;9.40
71564;BMP180;59391;52.504;13.438;2023-03-08T12:12:58;99322.00;;;9.40
71564;BMP180;59391;52.504;13.438;2023-03-08T12:15:43;99326.00;;;9.30
71564;BMP180;59391;52.504;13.438;2023-03-08T12:18:45;99310.00;;;9.30
71564;BMP180;59391;52.504;13.438;2023-03-08T12:21:33;99311.00;;;9.50
71564;BMP180;59391;52.504;13.438;2023-03-08T12:29:54;99300.00;;;10.10
71564;BMP180;59391;52.504;13.438;2023-03-08T12:32:24;99295.00;;;10.20
71564;BMP180;59391;52.504;13.438;2023-03-08T12:35:03;99288.00;;;10.30
71564;BMP180;59391;52.504;13.438;2023-03-08T12:37:30;99288.00;;;10.30
71564;BMP180;59391;52.504;13.438;2023-03-08T12:40:39;99293.00;;;10.30
71564;BMP180;59391;52.504;13.438;2023-03-08T12:53:54;99277.00;;;9.90
71564;BMP180;59391;52.504;13.438;2023-03-08T12:56:49;99278.00;;;9.90
71564;BMP180;59391;52.504;13.438;2023-03-08T13:01:58;99283.00;;;9.60
71564;BMP180;59391;52.504;13.438;2023-03-08T13:04:47;99283.00;;;9.50
71564;BMP180;59391;52.504;13.438;2023-03-08T13:07:35;99272.00;;;9.40
71564;BMP180;59391;52.504;13.438;2023-03-08T13:15:37;99275.00;;;9.50
71564;BMP180;59391;52.504;13.438;2023-03-08T13:18:14;99276.00;;;9.50
71564;BMP180;59391;52.504;13.438;2023-03-08T13:21:12;99267.00;;;9.60
71564;BMP180;59391;52.504;13.438;2023-03-08T13:23:52;99279.00;;;9.60
71564;BMP180;59391;52.504;13.438;2023-03-08T13:26:56;99280.00;;;9.50
71564;BMP180;59391;52.504;13.438;2023-03-08T13:29:31;99276.00;;;9.50
71564;BMP180;59391;52.504;13.438;2023-03-08T13:32:03;99285.00;;;9.40
71564;BMP180;59391;52.504;13.438;2023-03-08T13:34:32;99278.00;;;9.30
71564;BMP180;59391;52.504;13.438;2023-03-08T13:36:59;99282.00;;;9.30
71564;BMP180;59391;52.504;13.438;2023-03-08T13:39:29;99283.00;;;9.30
71564;BMP180;59391;52.504;13.438;2023-03-08T13:42:08;99286.00;;;9.30
71564;BMP180;59391;52.504;13.438;2023-03-08T13:44:35;99281.00;;;9.30
71564;BMP180;59391;52.504;13.438;2023-03-08T13:47:10;99280.00;;;9.20
71564;BMP180;59391;52.504;13.438;2023-03-08T13:49:42;99279.00;;;9.10
71564;BMP180;59391;52.504;13.438;2023-03-08T13:52:22;99276.00;;;9.00
71564;BMP180;59391;52.504;13.438;2023-03-08T13:54:53;99279.00;;;8.90
71564;BMP180;59391;52.504;13.438;2023-03-08T13:57:22;99287.00;;;8.80
71564;BMP180;59391;52.504;13.438;2023-03-08T13:59:52;99289.00;;;8.70
71564;BMP180;59391;52.504;13.438;2023-03-08T14:02:23;99289.00;;;8.70
71564;BMP180;59391;52.504;13.438;2023-03-08T14:04:49;99285.00;;;8.60
71564;BMP180;59391;52.504;13.438;2023-03-08T14:07:25;99291.00;;;8.50
71564;BMP180;59391;52.504;13.438;2023-03-08T14:09:52;99287.00;;;8.40
71564;BMP180;59391;52.504;13.438;2023-03-08T14:12:22;99290.00;;;8.30
71564;BMP180;59391;52.504;13.438;2023-03-08T14:14:55;99292.00;;;8.30
71564;BMP180;59391;52.504;13.438;2023-03-08T14:17:25;99287.00;;;8.20
71564;BMP180;59391;52.504;13.438;2023-03-08T14:20:19;99283.00;;;8.10
71564;BMP180;59391;52.504;13.438;2023-03-08T14:22:48;99284.00;;;8.10
71564;BMP180;59391;52.504;13.438;2023-03-08T14:25:26;99289.00;;;8.10
71564;BMP180;59391;52.504;13.438;2023-03-08T14:27:53;99286.00;;;8.00
71564;BMP180;59391;52.504;13.438;2023-03-08T14:30:28;99285.00;;;7.90
71564;BMP180;59391;52.504;13.438;2023-03-08T14:33:18;99282.00;;;7.90
71564;BMP180;59391;52.504;13.438;2023-03-08T14:35:55;99273.00;;;7.80
71564;BMP180;59391;52.504;13.438;2023-03-08T14:38:27;99273.00;;;7.70
71564;BMP180;59391;52.504;13.438;2023-03-08T14:40:54;99274.00;;;7.70
71564;BMP180;59391;52.504;13.438;2023-03-08T14:43:24;99270.00;;;7.70
71564;BMP180;59391;52.504;13.438;2023-03-08T14:46:06;99259.00;;;7.60
71564;BMP180;59391;52.504;13.438;2023-03-08T14:48:37;99265.00;;;7.50
71564;BMP180;59391;52.504;13.438;2023-03-08T14:51:39;99249.00;;;7.40
71564;BMP180;59391;52.504;13.438;2023-03-08T14:54:37;99252.00;;;7.30
71564;BMP180;59391;52.504;13.438;2023-03-08T14:57:21;99246.00;;;7.20
71564;BMP180;59391;52.504;13.438;2023-03-08T14:59:48;99253.00;;;7.20
71564;BMP180;59391;52.504;13.438;2023-03-08T15:02:16;99243.00;;;7.10
71564;BMP180;59391;52.504;13.438;2023-03-08T15:04:46;99250.00;;;7.10
71564;BMP180;59391;52.504;13.438;2023-03-08T15:07:19;99256.00;;;7.00
71564;BMP180;59391;52.504;13.438;2023-03-08T15:09:47;99256.00;;;7.00
71564;BMP180;59391;52.504;13.438;2023-03-08T15:12:13;99251.00;;;7.00
71564;BMP180;59391;52.504;13.438;2023-03-08T15:14:39;99259.00;;;7.00
71564;BMP180;59391;52.504;13.438;2023-03-08T15:17:05;99260.00;;;6.90